Flight Track Log - Related Links

Times and Time Zones

All times are in EDT time to prevent confusion due to time zone crossing. See the SKW7384 flight status page for this flight to view local times or setup timezone preferences in your user account.

Time Position Orientation Groundspeed Altitude Reporting Facility
EDT Latitude Longitude Course Direction KTS MPH feet Rate Location/Type
Wed 12:13:44 AM 40.7758 -111.9983 90° East 175 201 4,800  Level Salt Lake Center
Wed 12:14:14 AM 40.7567 -112.0217 223° Southwest 186 214 5,700 1,899 Climbing Salt Lake Center
Wed 12:15:03 AM 40.7697 -112.0881 285° West 252 290 7,300 2,330 Climbing Salt Lake Center
Wed 12:15:57 AM 40.8375 -112.0936 356° North 290 334 9,700 2,468 Climbing Salt Lake Center
Wed 12:16:00 AM 40.9694 -112.2333 North  Level FlightAware Approximate
Wed 12:17:00 AM 41.0150 -112.1137 81° East  Level FlightAware Approximate
Wed 12:17:07 AM 40.8831 -111.9889 60° Northeast 304 350 12,400  Level Salt Lake Center
Wed 12:18:00 AM 41.0168 -111.9522 90° East  Level FlightAware Approximate
Wed 12:18:08 AM 40.9197 -111.8844 65° Northeast 323 372 14,400  Level Salt Lake Center
Wed 12:19:00 AM 41.0168 -111.7904 90° East  Level FlightAware Approximate
Wed 12:19:09 AM 40.9469 -111.7742 72° East 326 375 16,500  Level Salt Lake Center
Wed 12:20:10 AM 40.9753 -111.6603 72° East 334 384 18,300 1,770 Climbing Salt Lake Center
Wed 12:21:11 AM 41.0100 -111.5169 72° East 346 398 20,100 1,623 Climbing Salt Lake Center
Wed 12:22:12 AM 41.0403 -111.3942 72° East 352 405 21,600 1,328 Climbing Salt Lake Center
Wed 12:23:13 AM 41.0703 -111.2700 72° East 355 409 22,800 1,180 Climbing Salt Lake Center
Wed 12:24:14 AM 41.1000 -111.1425 73° East 362 417 24,000 1,230 Climbing Salt Lake Center
Wed 12:25:15 AM 41.1319 -111.0122 72° East 372 428 25,300 1,230 Climbing Salt Lake Center
Wed 12:26:16 AM 41.1650 -110.8733 72° East 374 430 26,500 836 Climbing Salt Lake Center
Wed 12:27:17 AM 41.1956 -110.7436 73° East 384 442 27,000 246 Climbing Salt Lake Center
Wed 12:28:18 AM 41.2331 -110.5825 73° East 407 468 27,000  Level Salt Lake Center
Wed 12:29:19 AM 41.2678 -110.4375 72° East 425 489 27,000  Level Salt Lake Center
Wed 12:30:20 AM 41.3017 -110.2892 73° East 437 503 27,000  Level Salt Lake Center
Wed 12:31:21 AM 41.3428 -110.1144 73° East 444 511 27,000  Level Salt Lake Center
Wed 12:32:22 AM 41.3769 -109.9636 73° East 445 512 27,000  Level Salt Lake Center
Wed 12:33:23 AM 41.4122 -109.8139 73° East 444 511 27,000  Level Salt Lake Center
Wed 12:34:24 AM 41.4511 -109.6397 73° East 440 506 27,000  Level Salt Lake Center
Wed 12:35:25 AM 41.4847 -109.4917 73° East 437 503 27,000  Level Salt Lake Center
Wed 12:36:26 AM 41.5181 -109.3442 73° East 433 498 27,000  Level Salt Lake Center
Wed 12:37:27 AM 41.5564 -109.1689 74° East 434 499 27,000  Level Salt Lake Center
Wed 12:38:28 AM 41.5914 -109.0197 73° East 432 497 27,000  Level Salt Lake Center
Wed 12:39:28 AM 41.6508 -108.8878 59° Northeast 428 493 27,000  Level Salt Lake Center
Wed 12:40:29 AM 41.7106 -108.7578 58° Northeast 428 493 27,000  Level Salt Lake Center
Wed 12:41:30 AM 41.7800 -108.6103 58° Northeast 420 483 27,000  Level Salt Lake Center
Wed 12:42:31 AM 41.8383 -108.4808 59° Northeast 423 487 27,000  Level Salt Lake Center
Wed 12:43:32 AM 41.8986 -108.3508 58° Northeast 427 491 27,000  Level Salt Lake Center
Wed 12:44:33 AM 41.9697 -108.2008 57° Northeast 427 491 27,000  Level Salt Lake Center
Wed 12:45:34 AM 42.0258 -108.0703 60° Northeast 423 487 27,000  Level Salt Lake Center
Wed 12:46:34 AM 42.0953 -107.9142 59° Northeast 435 501 27,000  Level Salt Lake Center
Wed 12:47:35 AM 42.1533 -107.7817 59° Northeast 430 495 27,000 -393 Level Salt Lake Center
Wed 12:48:36 AM 42.2139 -107.6483 58° Northeast 434 499 26,200 -1,180 Descending Salt Lake Center
Wed 12:49:37 AM 42.2856 -107.4853 59° Northeast 449 517 24,600 -1,587 Descending Salt Lake Center
Wed 12:50:37 AM 42.3456 -107.3492 59° Northeast 444 511 23,000 -1,983 Descending Salt Lake Center
Wed 12:51:38 AM 42.4050 -107.2158 59° Northeast 437 503 20,600 -2,508 Descending Salt Lake Center
Wed 12:52:39 AM 42.4689 -107.0686 59° Northeast 412 474 17,900 -2,557 Descending Salt Lake Center
Wed 12:53:40 AM 42.5203 -106.9575 58° Northeast 376 433 15,400 -2,045 Descending Salt Lake Center
Wed 12:54:51 AM 42.5753 -106.8286 60° Northeast 353 406 13,400 -2,000 Descending Denver Center
Wed 12:56:04 AM 42.6747 -106.7486 31° Northeast 373 429 10,600 -1,579 Descending Denver Center
Wed 12:57:04 AM 42.7500 -106.6681 38° Northeast 335 386 9,900 -550 Descending Denver Center
Wed 12:58:04 AM 42.7911 -106.6128 45° Northeast 279 321 9,500 -400 Descending Denver Center

Login

Don't have an account? Register now (free) for customized features, flight alerts, and more!